sensor_id;sensor_type;location;lat;lon;timestamp;temperature;humidity
7516;DHT22;3799;47.184;8.538;2023-12-29T00:00:08;6.60;99.90
7516;DHT22;3799;47.184;8.538;2023-12-29T00:02:36;6.80;99.90
7516;DHT22;3799;47.184;8.538;2023-12-29T00:05:04;7.10;99.90
7516;DHT22;3799;47.184;8.538;2023-12-29T00:07:31;6.80;99.90
7516;DHT22;3799;47.184;8.538;2023-12-29T00:09:59;7.10;99.90
7516;DHT22;3799;47.184;8.538;2023-12-29T00:12:26;7.00;99.90
7516;DHT22;3799;47.184;8.538;2023-12-29T00:14:54;6.80;99.90
7516;DHT22;3799;47.184;8.538;2023-12-29T00:17:22;6.70;99.90
7516;DHT22;3799;47.184;8.538;2023-12-29T00:19:49;6.90;99.90
7516;DHT22;3799;47.184;8.538;2023-12-29T00:22:16;6.90;99.90
7516;DHT22;3799;47.184;8.538;2023-12-29T00:24:44;6.90;99.90
7516;DHT22;3799;47.184;8.538;2023-12-29T00:27:12;6.60;99.90
7516;DHT22;3799;47.184;8.538;2023-12-29T00:29:39;6.60;99.90
7516;DHT22;3799;47.184;8.538;2023-12-29T00:32:06;6.70;99.90
7516;DHT22;3799;47.184;8.538;2023-12-29T00:34:34;6.70;99.90
7516;DHT22;3799;47.184;8.538;2023-12-29T00:37:01;6.90;99.90
7516;DHT22;3799;47.184;8.538;2023-12-29T00:39:30;6.60;99.90
7516;DHT22;3799;47.184;8.538;2023-12-29T00:41:58;6.80;99.90
7516;DHT22;3799;47.184;8.538;2023-12-29T00:44:26;6.90;99.90
7516;DHT22;3799;47.184;8.538;2023-12-29T00:46:53;6.70;99.90
7516;DHT22;3799;47.184;8.538;2023-12-29T00:49:20;6.70;99.90
7516;DHT22;3799;47.184;8.538;2023-12-29T00:51:48;6.70;99.90
7516;DHT22;3799;47.184;8.538;2023-12-29T00:54:15;6.70;99.90
7516;DHT22;3799;47.184;8.538;2023-12-29T00:56:50;6.80;99.90
7516;DHT22;3799;47.184;8.538;2023-12-29T00:59:19;6.90;99.90
7516;DHT22;3799;47.184;8.538;2023-12-29T01:01:49;6.60;99.90
7516;DHT22;3799;47.184;8.538;2023-12-29T01:04:17;6.90;99.90
7516;DHT22;3799;47.184;8.538;2023-12-29T01:06:44;6.80;99.90
7516;DHT22;3799;47.184;8.538;2023-12-29T01:09:14;6.50;99.90
7516;DHT22;3799;47.184;8.538;2023-12-29T01:11:41;6.60;99.90
7516;DHT22;3799;47.184;8.538;2023-12-29T01:14:09;6.80;99.90
7516;DHT22;3799;47.184;8.538;2023-12-29T01:16:36;6.70;99.90
7516;DHT22;3799;47.184;8.538;2023-12-29T01:19:04;6.70;99.90
7516;DHT22;3799;47.184;8.538;2023-12-29T01:21:31;6.90;99.90
7516;DHT22;3799;47.184;8.538;2023-12-29T01:24:01;6.70;99.90
7516;DHT22;3799;47.184;8.538;2023-12-29T01:26:30;6.80;99.90
7516;DHT22;3799;47.184;8.538;2023-12-29T01:28:58;6.60;99.90
7516;DHT22;3799;47.184;8.538;2023-12-29T01:31:29;6.70;99.90
7516;DHT22;3799;47.184;8.538;2023-12-29T01:33:58;6.80;99.90
7516;DHT22;3799;47.184;8.538;2023-12-29T01:36:29;6.70;99.90
7516;DHT22;3799;47.184;8.538;2023-12-29T01:38:56;6.70;99.90
7516;DHT22;3799;47.184;8.538;2023-12-29T01:41:24;6.60;99.90
7516;DHT22;3799;47.184;8.538;2023-12-29T01:46:26;6.80;99.90
7516;DHT22;3799;47.184;8.538;2023-12-29T01:48:55;6.50;99.90
7516;DHT22;3799;47.184;8.538;2023-12-29T01:51:25;6.60;99.90
7516;DHT22;3799;47.184;8.538;2023-12-29T01:53:54;6.70;99.90
7516;DHT22;3799;47.184;8.538;2023-12-29T01:56:23;6.80;99.90
7516;DHT22;3799;47.184;8.538;2023-12-29T01:58:51;6.60;99.90
7516;DHT22;3799;47.184;8.538;2023-12-29T02:01:19;6.70;99.90
7516;DHT22;3799;47.184;8.538;2023-12-29T02:03:47;6.60;99.90
7516;DHT22;3799;47.184;8.538;2023-12-29T02:06:16;6.70;99.90
7516;DHT22;3799;47.184;8.538;2023-12-29T02:08:45;6.90;99.90
7516;DHT22;3799;47.184;8.538;2023-12-29T02:11:12;6.70;99.90
7516;DHT22;3799;47.184;8.538;2023-12-29T02:13:40;7.00;99.90
7516;DHT22;3799;47.184;8.538;2023-12-29T02:18:55;6.70;99.90
7516;DHT22;3799;47.184;8.538;2023-12-29T02:21:25;6.70;99.90
7516;DHT22;3799;47.184;8.538;2023-12-29T02:23:52;6.70;99.90
7516;DHT22;3799;47.184;8.538;2023-12-29T02:26:21;6.80;99.90
7516;DHT22;3799;47.184;8.538;2023-12-29T02:28:55;6.60;99.90
7516;DHT22;3799;47.184;8.538;2023-12-29T02:31:27;6.50;99.90
7516;DHT22;3799;47.184;8.538;2023-12-29T02:33:56;6.60;99.90
7516;DHT22;3799;47.184;8.538;2023-12-29T02:36:25;6.70;99.90
7516;DHT22;3799;47.184;8.538;2023-12-29T02:38:52;6.50;99.90
7516;DHT22;3799;47.184;8.538;2023-12-29T02:41:19;6.50;99.90
7516;DHT22;3799;47.184;8.538;2023-12-29T02:43:47;6.70;99.90
7516;DHT22;3799;47.184;8.538;2023-12-29T02:46:14;6.60;99.90
7516;DHT22;3799;47.184;8.538;2023-12-29T02:48:44;6.60;99.90
7516;DHT22;3799;47.184;8.538;2023-12-29T02:51:11;6.60;99.90
7516;DHT22;3799;47.184;8.538;2023-12-29T02:53:38;6.50;99.90
7516;DHT22;3799;47.184;8.538;2023-12-29T02:56:05;6.80;99.90
7516;DHT22;3799;47.184;8.538;2023-12-29T02:58:33;6.60;99.90
7516;DHT22;3799;47.184;8.538;2023-12-29T03:01:00;6.70;99.90
7516;DHT22;3799;47.184;8.538;2023-12-29T03:03:27;6.60;99.90
7516;DHT22;3799;47.184;8.538;2023-12-29T03:05:54;6.70;99.90
7516;DHT22;3799;47.184;8.538;2023-12-29T03:08:22;6.70;99.90
7516;DHT22;3799;47.184;8.538;2023-12-29T03:10:52;6.90;99.90
7516;DHT22;3799;47.184;8.538;2023-12-29T03:13:20;6.60;99.90
7516;DHT22;3799;47.184;8.538;2023-12-29T03:15:48;6.70;99.90
7516;DHT22;3799;47.184;8.538;2023-12-29T03:18:15;6.50;99.90
7516;DHT22;3799;47.184;8.538;2023-12-29T03:20:44;6.40;99.90
7516;DHT22;3799;47.184;8.538;2023-12-29T03:23:11;6.50;99.90
7516;DHT22;3799;47.184;8.538;2023-12-29T03:25:38;6.60;99.90
7516;DHT22;3799;47.184;8.538;2023-12-29T03:28:05;6.60;99.90
7516;DHT22;3799;47.184;8.538;2023-12-29T03:30:33;6.50;99.90
7516;DHT22;3799;47.184;8.538;2023-12-29T03:33:00;6.40;99.90
7516;DHT22;3799;47.184;8.538;2023-12-29T03:35:30;6.40;99.90
7516;DHT22;3799;47.184;8.538;2023-12-29T03:37:57;6.40;99.90
7516;DHT22;3799;47.184;8.538;2023-12-29T03:40:25;6.70;99.90
7516;DHT22;3799;47.184;8.538;2023-12-29T03:42:52;6.60;99.90
7516;DHT22;3799;47.184;8.538;2023-12-29T03:45:19;6.70;99.90
7516;DHT22;3799;47.184;8.538;2023-12-29T03:47:47;6.60;99.90
7516;DHT22;3799;47.184;8.538;2023-12-29T03:50:14;6.60;99.90
7516;DHT22;3799;47.184;8.538;2023-12-29T03:52:42;6.60;99.90
7516;DHT22;3799;47.184;8.538;2023-12-29T03:55:10;6.70;99.90
7516;DHT22;3799;47.184;8.538;2023-12-29T03:57:38;6.40;99.90
7516;DHT22;3799;47.184;8.538;2023-12-29T04:00:06;6.50;99.90
7516;DHT22;3799;47.184;8.538;2023-12-29T04:02:36;6.40;99.90
7516;DHT22;3799;47.184;8.538;2023-12-29T04:05:05;6.60;99.90
7516;DHT22;3799;47.184;8.538;2023-12-29T04:07:33;6.70;99.90
7516;DHT22;3799;47.184;8.538;2023-12-29T04:10:00;6.50;99.90
7516;DHT22;3799;47.184;8.538;2023-12-29T04:12:28;6.70;99.90
7516;DHT22;3799;47.184;8.538;2023-12-29T04:14:55;6.40;99.90
7516;DHT22;3799;47.184;8.538;2023-12-29T04:17:22;6.80;99.90
7516;DHT22;3799;47.184;8.538;2023-12-29T04:19:50;6.70;99.90
7516;DHT22;3799;47.184;8.538;2023-12-29T04:22:17;6.80;99.90
7516;DHT22;3799;47.184;8.538;2023-12-29T04:24:44;6.70;99.90
7516;DHT22;3799;47.184;8.538;2023-12-29T04:27:11;6.70;99.90
7516;DHT22;3799;47.184;8.538;2023-12-29T04:29:39;6.50;99.90
7516;DHT22;3799;47.184;8.538;2023-12-29T04:32:06;6.60;99.90
7516;DHT22;3799;47.184;8.538;2023-12-29T04:34:33;6.80;99.90
7516;DHT22;3799;47.184;8.538;2023-12-29T04:37:01;6.60;99.90
7516;DHT22;3799;47.184;8.538;2023-12-29T04:39:28;6.80;99.90
7516;DHT22;3799;47.184;8.538;2023-12-29T04:41:55;6.60;99.90
7516;DHT22;3799;47.184;8.538;2023-12-29T04:44:22;6.70;99.90
7516;DHT22;3799;47.184;8.538;2023-12-29T04:46:49;6.60;99.90
7516;DHT22;3799;47.184;8.538;2023-12-29T04:49:17;6.70;99.90
7516;DHT22;3799;47.184;8.538;2023-12-29T04:51:44;6.50;99.90
7516;DHT22;3799;47.184;8.538;2023-12-29T04:54:11;6.50;99.90
7516;DHT22;3799;47.184;8.538;2023-12-29T04:56:38;6.70;99.90
7516;DHT22;3799;47.184;8.538;2023-12-29T04:59:08;6.70;99.90
7516;DHT22;3799;47.184;8.538;2023-12-29T05:01:35;6.60;99.90
7516;DHT22;3799;47.184;8.538;2023-12-29T05:04:03;6.80;99.90
7516;DHT22;3799;47.184;8.538;2023-12-29T05:06:30;6.60;99.90
7516;DHT22;3799;47.184;8.538;2023-12-29T05:08:58;6.60;99.90
7516;DHT22;3799;47.184;8.538;2023-12-29T05:11:25;6.70;99.90
7516;DHT22;3799;47.184;8.538;2023-12-29T05:13:52;6.70;99.90
7516;DHT22;3799;47.184;8.538;2023-12-29T05:16:20;6.90;99.90
7516;DHT22;3799;47.184;8.538;2023-12-29T05:18:47;6.80;99.90
7516;DHT22;3799;47.184;8.538;2023-12-29T05:21:18;6.70;99.90
7516;DHT22;3799;47.184;8.538;2023-12-29T05:23:45;7.00;99.90
7516;DHT22;3799;47.184;8.538;2023-12-29T05:26:14;6.90;99.90
7516;DHT22;3799;47.184;8.538;2023-12-29T05:28:42;7.00;99.90
7516;DHT22;3799;47.184;8.538;2023-12-29T05:31:09;6.90;99.90
7516;DHT22;3799;47.184;8.538;2023-12-29T05:33:40;6.90;99.90
7516;DHT22;3799;47.184;8.538;2023-12-29T05:36:08;6.90;99.90
7516;DHT22;3799;47.184;8.538;2023-12-29T05:38:37;6.90;99.90
7516;DHT22;3799;47.184;8.538;2023-12-29T05:41:13;7.00;99.90
7516;DHT22;3799;47.184;8.538;2023-12-29T05:43:40;7.00;99.90
7516;DHT22;3799;47.184;8.538;2023-12-29T05:46:11;7.00;99.90
7516;DHT22;3799;47.184;8.538;2023-12-29T05:48:39;6.90;99.90
7516;DHT22;3799;47.184;8.538;2023-12-29T05:51:10;7.10;99.90
7516;DHT22;3799;47.184;8.538;2023-12-29T05:53:40;7.10;99.90
7516;DHT22;3799;47.184;8.538;2023-12-29T05:56:07;7.00;99.90
7516;DHT22;3799;47.184;8.538;2023-12-29T05:58:34;7.00;99.90
7516;DHT22;3799;47.184;8.538;2023-12-29T06:01:02;6.90;99.90
7516;DHT22;3799;47.184;8.538;2023-12-29T06:03:30;7.10;99.90
7516;DHT22;3799;47.184;8.538;2023-12-29T06:05:57;7.10;99.90
7516;DHT22;3799;47.184;8.538;2023-12-29T06:08:24;7.10;99.90
7516;DHT22;3799;47.184;8.538;2023-12-29T06:10:52;7.20;99.90
7516;DHT22;3799;47.184;8.538;2023-12-29T06:13:19;7.30;99.90
7516;DHT22;3799;47.184;8.538;2023-12-29T06:15:46;7.10;99.90
7516;DHT22;3799;47.184;8.538;2023-12-29T06:18:14;7.20;99.90
7516;DHT22;3799;47.184;8.538;2023-12-29T06:20:41;7.30;99.90
7516;DHT22;3799;47.184;8.538;2023-12-29T06:23:09;7.30;99.90
7516;DHT22;3799;47.184;8.538;2023-12-29T06:25:36;7.40;99.90
7516;DHT22;3799;47.184;8.538;2023-12-29T06:28:05;7.30;99.90
7516;DHT22;3799;47.184;8.538;2023-12-29T06:30:33;7.20;99.90
7516;DHT22;3799;47.184;8.538;2023-12-29T06:33:01;7.50;99.90
7516;DHT22;3799;47.184;8.538;2023-12-29T06:35:29;7.20;99.90
7516;DHT22;3799;47.184;8.538;2023-12-29T06:37:56;7.20;99.90
7516;DHT22;3799;47.184;8.538;2023-12-29T06:40:23;7.50;99.90
7516;DHT22;3799;47.184;8.538;2023-12-29T06:42:51;7.70;99.90
7516;DHT22;3799;47.184;8.538;2023-12-29T06:45:18;7.30;99.90
7516;DHT22;3799;47.184;8.538;2023-12-29T06:47:45;7.20;99.90
7516;DHT22;3799;47.184;8.538;2023-12-29T06:50:12;7.30;99.90
7516;DHT22;3799;47.184;8.538;2023-12-29T06:52:40;7.40;99.90
7516;DHT22;3799;47.184;8.538;2023-12-29T06:55:07;7.40;99.90
7516;DHT22;3799;47.184;8.538;2023-12-29T06:57:36;7.40;99.90
7516;DHT22;3799;47.184;8.538;2023-12-29T07:00:07;7.30;99.90
7516;DHT22;3799;47.184;8.538;2023-12-29T07:02:38;7.30;99.90
7516;DHT22;3799;47.184;8.538;2023-12-29T07:05:06;7.40;99.90
7516;DHT22;3799;47.184;8.538;2023-12-29T07:07:35;7.70;99.90
7516;DHT22;3799;47.184;8.538;2023-12-29T07:10:03;7.30;99.90
7516;DHT22;3799;47.184;8.538;2023-12-29T07:12:30;7.40;99.90
7516;DHT22;3799;47.184;8.538;2023-12-29T07:14:58;7.40;99.90
7516;DHT22;3799;47.184;8.538;2023-12-29T07:17:25;7.60;99.90
7516;DHT22;3799;47.184;8.538;2023-12-29T07:19:52;7.70;99.90
7516;DHT22;3799;47.184;8.538;2023-12-29T07:22:19;7.60;99.90
7516;DHT22;3799;47.184;8.538;2023-12-29T07:24:47;7.70;99.90
7516;DHT22;3799;47.184;8.538;2023-12-29T07:27:14;7.70;99.90
7516;DHT22;3799;47.184;8.538;2023-12-29T07:29:41;7.80;99.90
7516;DHT22;3799;47.184;8.538;2023-12-29T07:32:09;7.70;99.90
7516;DHT22;3799;47.184;8.538;2023-12-29T07:34:36;7.50;99.90
7516;DHT22;3799;47.184;8.538;2023-12-29T07:37:04;7.50;99.90
7516;DHT22;3799;47.184;8.538;2023-12-29T07:39:31;7.70;99.90
7516;DHT22;3799;47.184;8.538;2023-12-29T07:41:58;7.80;99.90
7516;DHT22;3799;47.184;8.538;2023-12-29T07:44:26;7.70;99.90
7516;DHT22;3799;47.184;8.538;2023-12-29T07:46:54;7.70;99.90
7516;DHT22;3799;47.184;8.538;2023-12-29T07:49:23;7.50;99.90
7516;DHT22;3799;47.184;8.538;2023-12-29T07:51:51;7.50;99.90
7516;DHT22;3799;47.184;8.538;2023-12-29T07:54:18;7.70;99.90
7516;DHT22;3799;47.184;8.538;2023-12-29T07:56:45;7.60;99.90
7516;DHT22;3799;47.184;8.538;2023-12-29T07:59:12;7.40;99.90
7516;DHT22;3799;47.184;8.538;2023-12-29T08:01:40;7.40;99.90
7516;DHT22;3799;47.184;8.538;2023-12-29T08:04:07;7.60;99.90
7516;DHT22;3799;47.184;8.538;2023-12-29T08:06:37;7.40;99.90
7516;DHT22;3799;47.184;8.538;2023-12-29T08:09:05;7.60;99.90
7516;DHT22;3799;47.184;8.538;2023-12-29T08:11:34;7.60;99.90
7516;DHT22;3799;47.184;8.538;2023-12-29T08:14:01;7.60;99.90
7516;DHT22;3799;47.184;8.538;2023-12-29T08:16:28;7.60;99.90
7516;DHT22;3799;47.184;8.538;2023-12-29T08:18:56;7.30;99.90
7516;DHT22;3799;47.184;8.538;2023-12-29T08:21:24;7.50;99.90
7516;DHT22;3799;47.184;8.538;2023-12-29T08:23:51;7.60;99.90
7516;DHT22;3799;47.184;8.538;2023-12-29T08:26:18;7.40;99.90
7516;DHT22;3799;47.184;8.538;2023-12-29T08:28:46;7.60;99.90
7516;DHT22;3799;47.184;8.538;2023-12-29T08:31:14;7.70;99.90
7516;DHT22;3799;47.184;8.538;2023-12-29T08:33:42;7.60;99.90
7516;DHT22;3799;47.184;8.538;2023-12-29T08:36:10;7.90;99.90
7516;DHT22;3799;47.184;8.538;2023-12-29T08:38:38;7.90;99.90
7516;DHT22;3799;47.184;8.538;2023-12-29T08:41:06;7.90;99.90
7516;DHT22;3799;47.184;8.538;2023-12-29T08:43:34;7.60;99.90
7516;DHT22;3799;47.184;8.538;2023-12-29T08:46:03;7.80;99.90
7516;DHT22;3799;47.184;8.538;2023-12-29T08:48:31;7.80;99.90
7516;DHT22;3799;47.184;8.538;2023-12-29T08:50:58;7.60;99.90
7516;DHT22;3799;47.184;8.538;2023-12-29T08:53:26;7.90;99.90
7516;DHT22;3799;47.184;8.538;2023-12-29T08:55:53;7.90;99.90
7516;DHT22;3799;47.184;8.538;2023-12-29T08:58:21;7.90;99.90
7516;DHT22;3799;47.184;8.538;2023-12-29T09:00:48;7.80;99.90
7516;DHT22;3799;47.184;8.538;2023-12-29T09:03:15;7.90;99.90
7516;DHT22;3799;47.184;8.538;2023-12-29T09:05:42;7.70;99.90
7516;DHT22;3799;47.184;8.538;2023-12-29T09:08:10;7.80;99.90
7516;DHT22;3799;47.184;8.538;2023-12-29T09:10:37;7.80;99.90
7516;DHT22;3799;47.184;8.538;2023-12-29T09:13:05;7.90;99.90
7516;DHT22;3799;47.184;8.538;2023-12-29T09:15:33;7.80;99.90
7516;DHT22;3799;47.184;8.538;2023-12-29T09:18:01;7.80;99.90
7516;DHT22;3799;47.184;8.538;2023-12-29T09:20:30;8.10;99.90
7516;DHT22;3799;47.184;8.538;2023-12-29T09:22:59;7.90;99.90
7516;DHT22;3799;47.184;8.538;2023-12-29T09:25:26;8.00;99.90
7516;DHT22;3799;47.184;8.538;2023-12-29T09:27:57;8.10;99.90
7516;DHT22;3799;47.184;8.538;2023-12-29T09:30:25;8.10;99.90
7516;DHT22;3799;47.184;8.538;2023-12-29T09:32:52;7.90;99.90
7516;DHT22;3799;47.184;8.538;2023-12-29T09:35:20;8.30;99.90
7516;DHT22;3799;47.184;8.538;2023-12-29T09:37:48;8.10;99.90
7516;DHT22;3799;47.184;8.538;2023-12-29T09:40:18;8.00;99.90
7516;DHT22;3799;47.184;8.538;2023-12-29T09:42:46;8.10;99.90
7516;DHT22;3799;47.184;8.538;2023-12-29T09:45:20;8.30;99.90
7516;DHT22;3799;47.184;8.538;2023-12-29T09:47:51;8.30;99.90
7516;DHT22;3799;47.184;8.538;2023-12-29T09:50:21;8.10;99.90
7516;DHT22;3799;47.184;8.538;2023-12-29T09:52:49;8.30;99.90
7516;DHT22;3799;47.184;8.538;2023-12-29T09:55:19;8.20;99.90
7516;DHT22;3799;47.184;8.538;2023-12-29T09:57:47;8.40;99.90
7516;DHT22;3799;47.184;8.538;2023-12-29T10:00:17;8.60;99.90
7516;DHT22;3799;47.184;8.538;2023-12-29T10:02:46;8.60;99.90
7516;DHT22;3799;47.184;8.538;2023-12-29T10:05:15;8.60;99.90
7516;DHT22;3799;47.184;8.538;2023-12-29T10:07:43;8.70;99.90
7516;DHT22;3799;47.184;8.538;2023-12-29T10:10:16;8.70;99.90
7516;DHT22;3799;47.184;8.538;2023-12-29T10:12:48;8.80;99.90
7516;DHT22;3799;47.184;8.538;2023-12-29T10:18:06;8.60;99.90
7516;DHT22;3799;47.184;8.538;2023-12-29T10:23:11;8.80;99.90
7516;DHT22;3799;47.184;8.538;2023-12-29T10:25:43;8.80;99.90
7516;DHT22;3799;47.184;8.538;2023-12-29T10:28:11;9.10;99.90
7516;DHT22;3799;47.184;8.538;2023-12-29T10:30:40;9.00;99.90
7516;DHT22;3799;47.184;8.538;2023-12-29T10:33:08;8.90;99.90
7516;DHT22;3799;47.184;8.538;2023-12-29T10:35:36;9.10;99.90
7516;DHT22;3799;47.184;8.538;2023-12-29T10:38:12;9.10;99.90
7516;DHT22;3799;47.184;8.538;2023-12-29T10:40:40;8.90;99.90
7516;DHT22;3799;47.184;8.538;2023-12-29T10:43:10;9.30;99.90
7516;DHT22;3799;47.184;8.538;2023-12-29T10:45:37;9.20;99.90
7516;DHT22;3799;47.184;8.538;2023-12-29T10:48:05;9.30;99.90
7516;DHT22;3799;47.184;8.538;2023-12-29T10:50:43;9.40;99.90
7516;DHT22;3799;47.184;8.538;2023-12-29T10:53:15;9.60;99.90
7516;DHT22;3799;47.184;8.538;2023-12-29T10:55:47;9.40;99.90
7516;DHT22;3799;47.184;8.538;2023-12-29T10:58:16;9.60;99.90
7516;DHT22;3799;47.184;8.538;2023-12-29T11:00:44;9.50;99.90
7516;DHT22;3799;47.184;8.538;2023-12-29T11:03:16;9.50;99.90
7516;DHT22;3799;47.184;8.538;2023-12-29T11:05:48;9.60;99.90
7516;DHT22;3799;47.184;8.538;2023-12-29T11:08:25;9.50;99.90
7516;DHT22;3799;47.184;8.538;2023-12-29T11:10:54;9.60;99.90
7516;DHT22;3799;47.184;8.538;2023-12-29T11:13:22;9.60;99.90
7516;DHT22;3799;47.184;8.538;2023-12-29T11:15:51;9.60;99.90
7516;DHT22;3799;47.184;8.538;2023-12-29T11:18:19;9.60;99.90
7516;DHT22;3799;47.184;8.538;2023-12-29T11:20:50;9.60;99.90
7516;DHT22;3799;47.184;8.538;2023-12-29T11:23:17;9.80;99.90
7516;DHT22;3799;47.184;8.538;2023-12-29T11:25:47;9.80;99.90
7516;DHT22;3799;47.184;8.538;2023-12-29T11:28:22;9.90;99.90
7516;DHT22;3799;47.184;8.538;2023-12-29T11:30:52;9.90;99.90
7516;DHT22;3799;47.184;8.538;2023-12-29T11:33:31;10.10;99.90
7516;DHT22;3799;47.184;8.538;2023-12-29T11:36:15;10.10;99.90
7516;DHT22;3799;47.184;8.538;2023-12-29T11:42:13;10.20;99.90
7516;DHT22;3799;47.184;8.538;2023-12-29T11:44:42;10.40;99.90
7516;DHT22;3799;47.184;8.538;2023-12-29T11:47:36;10.40;99.90
7516;DHT22;3799;47.184;8.538;2023-12-29T11:50:08;10.30;99.90
7516;DHT22;3799;47.184;8.538;2023-12-29T11:52:38;10.30;99.90
7516;DHT22;3799;47.184;8.538;2023-12-29T11:55:13;10.70;99.90
7516;DHT22;3799;47.184;8.538;2023-12-29T11:57:45;10.40;99.90
7516;DHT22;3799;47.184;8.538;2023-12-29T12:00:13;10.40;99.90
7516;DHT22;3799;47.184;8.538;2023-12-29T12:02:41;10.60;99.90
7516;DHT22;3799;47.184;8.538;2023-12-29T12:05:09;10.70;99.90
7516;DHT22;3799;47.184;8.538;2023-12-29T12:12:48;10.60;99.90
7516;DHT22;3799;47.184;8.538;2023-12-29T12:18:01;10.50;99.90
7516;DHT22;3799;47.184;8.538;2023-12-29T12:20:34;10.80;99.90
7516;DHT22;3799;47.184;8.538;2023-12-29T12:23:11;10.60;99.90
7516;DHT22;3799;47.184;8.538;2023-12-29T12:25:45;10.40;99.90
7516;DHT22;3799;47.184;8.538;2023-12-29T12:28:16;10.50;99.90
7516;DHT22;3799;47.184;8.538;2023-12-29T12:30:44;10.70;99.90
7516;DHT22;3799;47.184;8.538;2023-12-29T12:33:12;10.60;99.90
7516;DHT22;3799;47.184;8.538;2023-12-29T12:35:41;10.70;99.90
7516;DHT22;3799;47.184;8.538;2023-12-29T12:38:15;10.70;99.90
7516;DHT22;3799;47.184;8.538;2023-12-29T12:40:51;10.80;99.90
7516;DHT22;3799;47.184;8.538;2023-12-29T12:43:21;11.00;99.90
7516;DHT22;3799;47.184;8.538;2023-12-29T12:46:00;10.80;99.90
7516;DHT22;3799;47.184;8.538;2023-12-29T12:48:36;11.00;99.90
7516;DHT22;3799;47.184;8.538;2023-12-29T12:51:07;10.90;99.90
7516;DHT22;3799;47.184;8.538;2023-12-29T12:53:34;11.30;99.90
7516;DHT22;3799;47.184;8.538;2023-12-29T12:56:06;11.10;99.90
7516;DHT22;3799;47.184;8.538;2023-12-29T12:58:34;11.10;99.90
7516;DHT22;3799;47.184;8.538;2023-12-29T13:01:02;11.10;99.90
7516;DHT22;3799;47.184;8.538;2023-12-29T13:03:31;11.40;99.90
7516;DHT22;3799;47.184;8.538;2023-12-29T13:06:00;11.50;99.90
7516;DHT22;3799;47.184;8.538;2023-12-29T13:08:28;11.50;99.90
7516;DHT22;3799;47.184;8.538;2023-12-29T13:11:06;11.70;99.90
7516;DHT22;3799;47.184;8.538;2023-12-29T13:13:40;11.50;99.90
7516;DHT22;3799;47.184;8.538;2023-12-29T13:16:08;11.40;99.90
7516;DHT22;3799;47.184;8.538;2023-12-29T13:18:36;11.70;99.90
7516;DHT22;3799;47.184;8.538;2023-12-29T13:21:04;11.80;99.90
7516;DHT22;3799;47.184;8.538;2023-12-29T13:23:31;11.50;99.90
7516;DHT22;3799;47.184;8.538;2023-12-29T13:26:05;11.30;99.90
7516;DHT22;3799;47.184;8.538;2023-12-29T13:28:36;11.50;99.90
7516;DHT22;3799;47.184;8.538;2023-12-29T13:31:09;11.70;99.90
7516;DHT22;3799;47.184;8.538;2023-12-29T13:33:59;11.40;99.90
7516;DHT22;3799;47.184;8.538;2023-12-29T13:39:41;11.20;99.50
7516;DHT22;3799;47.184;8.538;2023-12-29T13:42:11;11.30;98.70
7516;DHT22;3799;47.184;8.538;2023-12-29T13:44:40;11.70;98.60
7516;DHT22;3799;47.184;8.538;2023-12-29T13:47:08;11.40;98.40
7516;DHT22;3799;47.184;8.538;2023-12-29T13:49:37;11.60;97.90
7516;DHT22;3799;47.184;8.538;2023-12-29T13:52:05;11.80;97.80
7516;DHT22;3799;47.184;8.538;2023-12-29T13:54:41;11.70;97.40
7516;DHT22;3799;47.184;8.538;2023-12-29T13:57:10;11.70;96.90
7516;DHT22;3799;47.184;8.538;2023-12-29T13:59:37;12.20;96.90
7516;DHT22;3799;47.184;8.538;2023-12-29T14:02:35;12.50;96.80
7516;DHT22;3799;47.184;8.538;2023-12-29T14:05:19;12.90;95.50
7516;DHT22;3799;47.184;8.538;2023-12-29T14:08:39;13.10;93.40
7516;DHT22;3799;47.184;8.538;2023-12-29T14:10:40;13.20;92.40
7516;DHT22;3799;47.184;8.538;2023-12-29T14:15:36;13.60;91.60
7516;DHT22;3799;47.184;8.538;2023-12-29T14:20:40;14.10;89.80
7516;DHT22;3799;47.184;8.538;2023-12-29T14:23:08;14.40;84.90
7516;DHT22;3799;47.184;8.538;2023-12-29T14:25:37;14.90;80.30
7516;DHT22;3799;47.184;8.538;2023-12-29T14:28:15;15.70;74.90
7516;DHT22;3799;47.184;8.538;2023-12-29T14:30:43;16.10;69.90
7516;DHT22;3799;47.184;8.538;2023-12-29T14:33:11;16.00;67.70
7516;DHT22;3799;47.184;8.538;2023-12-29T14:35:38;16.00;67.30
7516;DHT22;3799;47.184;8.538;2023-12-29T14:38:06;15.70;66.20
7516;DHT22;3799;47.184;8.538;2023-12-29T14:40:33;15.40;67.00
7516;DHT22;3799;47.184;8.538;2023-12-29T14:43:03;15.10;69.10
7516;DHT22;3799;47.184;8.538;2023-12-29T14:45:31;14.60;69.10
7516;DHT22;3799;47.184;8.538;2023-12-29T14:47:58;14.50;68.20
7516;DHT22;3799;47.184;8.538;2023-12-29T14:50:27;14.30;68.30
7516;DHT22;3799;47.184;8.538;2023-12-29T14:52:54;13.60;69.20
7516;DHT22;3799;47.184;8.538;2023-12-29T14:55:21;13.20;71.10
7516;DHT22;3799;47.184;8.538;2023-12-29T14:57:49;13.10;73.30
7516;DHT22;3799;47.184;8.538;2023-12-29T15:00:18;12.70;75.20
7516;DHT22;3799;47.184;8.538;2023-12-29T15:02:46;12.20;76.50
7516;DHT22;3799;47.184;8.538;2023-12-29T15:05:13;12.20;77.90
7516;DHT22;3799;47.184;8.538;2023-12-29T15:07:40;12.20;79.50
7516;DHT22;3799;47.184;8.538;2023-12-29T15:10:08;12.30;81.70
7516;DHT22;3799;47.184;8.538;2023-12-29T15:12:37;12.00;83.40
7516;DHT22;3799;47.184;8.538;2023-12-29T15:15:06;11.80;85.50
7516;DHT22;3799;47.184;8.538;2023-12-29T15:17:36;11.60;87.60
7516;DHT22;3799;47.184;8.538;2023-12-29T15:20:03;11.40;90.20
7516;DHT22;3799;47.184;8.538;2023-12-29T15:22:32;11.20;91.50
7516;DHT22;3799;47.184;8.538;2023-12-29T15:24:59;11.40;93.10
7516;DHT22;3799;47.184;8.538;2023-12-29T15:27:27;11.30;94.30
7516;DHT22;3799;47.184;8.538;2023-12-29T15:29:56;11.00;95.10
7516;DHT22;3799;47.184;8.538;2023-12-29T15:32:23;10.90;96.30
7516;DHT22;3799;47.184;8.538;2023-12-29T15:34:51;10.80;97.70
7516;DHT22;3799;47.184;8.538;2023-12-29T15:37:19;10.90;98.80
7516;DHT22;3799;47.184;8.538;2023-12-29T15:39:46;10.70;99.60
7516;DHT22;3799;47.184;8.538;2023-12-29T15:42:13;10.60;99.90
7516;DHT22;3799;47.184;8.538;2023-12-29T15:44:41;10.50;99.90
7516;DHT22;3799;47.184;8.538;2023-12-29T15:47:08;10.40;99.90
7516;DHT22;3799;47.184;8.538;2023-12-29T15:49:41;10.50;99.90
7516;DHT22;3799;47.184;8.538;2023-12-29T15:52:08;10.30;99.90
7516;DHT22;3799;47.184;8.538;2023-12-29T15:54:38;10.40;99.90
7516;DHT22;3799;47.184;8.538;2023-12-29T15:57:05;10.30;99.90
7516;DHT22;3799;47.184;8.538;2023-12-29T15:59:36;10.10;99.90
7516;DHT22;3799;47.184;8.538;2023-12-29T16:02:03;9.90;99.90
7516;DHT22;3799;47.184;8.538;2023-12-29T16:04:30;10.20;99.90
7516;DHT22;3799;47.184;8.538;2023-12-29T16:06:58;10.10;99.90
7516;DHT22;3799;47.184;8.538;2023-12-29T16:09:25;10.20;99.90
7516;DHT22;3799;47.184;8.538;2023-12-29T16:11:54;10.20;99.90
7516;DHT22;3799;47.184;8.538;2023-12-29T16:14:23;10.30;99.90
7516;DHT22;3799;47.184;8.538;2023-12-29T16:16:50;10.00;99.90
7516;DHT22;3799;47.184;8.538;2023-12-29T16:19:17;10.30;99.90
7516;DHT22;3799;47.184;8.538;2023-12-29T16:21:45;10.00;99.90
7516;DHT22;3799;47.184;8.538;2023-12-29T16:24:13;10.10;99.90
7516;DHT22;3799;47.184;8.538;2023-12-29T16:26:42;10.20;99.90
7516;DHT22;3799;47.184;8.538;2023-12-29T16:29:16;10.20;99.90
7516;DHT22;3799;47.184;8.538;2023-12-29T16:31:45;10.30;99.90
7516;DHT22;3799;47.184;8.538;2023-12-29T16:34:12;10.40;99.90
7516;DHT22;3799;47.184;8.538;2023-12-29T16:36:40;10.30;99.90
7516;DHT22;3799;47.184;8.538;2023-12-29T16:39:07;10.30;99.90
7516;DHT22;3799;47.184;8.538;2023-12-29T16:41:37;10.40;99.90
7516;DHT22;3799;47.184;8.538;2023-12-29T16:44:04;10.60;99.90
7516;DHT22;3799;47.184;8.538;2023-12-29T16:46:33;10.70;99.90
7516;DHT22;3799;47.184;8.538;2023-12-29T16:49:00;10.30;99.90
7516;DHT22;3799;47.184;8.538;2023-12-29T16:51:30;10.40;99.90